createdAt,value
2022-10-22T00:03:19.346Z,14.40
2022-10-22T00:07:21.190Z,12.30
2022-10-22T00:11:23.014Z,12.90
2022-10-22T00:15:24.895Z,11.30
2022-10-22T00:19:27.665Z,12.30
2022-10-22T00:23:29.605Z,11.80
2022-10-22T00:27:31.432Z,13.50
2022-10-22T00:31:33.320Z,11.90
2022-10-22T00:35:35.517Z,13.90
2022-10-22T00:39:37.455Z,11.50
2022-10-22T00:44:02.532Z,13.00
2022-10-22T00:48:08.926Z,12.10
2022-10-22T00:52:11.588Z,12.50
2022-10-22T00:56:13.875Z,12.00
2022-10-22T01:00:16.370Z,11.00
2022-10-22T01:04:19.637Z,12.40
2022-10-22T01:08:36.526Z,12.10
2022-10-22T01:13:02.855Z,12.50
2022-10-22T01:17:09.493Z,13.10
2022-10-22T01:21:32.802Z,12.40
2022-10-22T01:25:35.633Z,12.10
2022-10-22T01:29:43.396Z,14.70
2022-10-22T01:33:48.177Z,13.00
2022-10-22T01:37:57.252Z,13.50
2022-10-22T01:41:59.528Z,14.10
2022-10-22T01:46:04.205Z,13.30
2022-10-22T01:50:36.844Z,12.80
2022-10-22T01:55:01.660Z,12.90
2022-10-22T01:59:24.657Z,12.80
2022-10-22T02:03:36.796Z,12.10
2022-10-22T02:07:48.797Z,13.00
2022-10-22T02:11:52.121Z,12.20
2022-10-22T02:15:56.587Z,13.10
2022-10-22T02:20:10.547Z,13.50
2022-10-22T02:24:12.668Z,14.20
2022-10-22T02:28:36.849Z,12.60
2022-10-22T02:33:03.292Z,13.00
2022-10-22T02:37:06.639Z,13.20
2022-10-22T02:41:09.520Z,13.10
2022-10-22T02:45:11.603Z,13.70
2022-10-22T02:49:13.645Z,14.10
2022-10-22T02:53:15.503Z,14.00
2022-10-22T02:57:17.422Z,13.40
2022-10-22T03:01:19.551Z,12.40
2022-10-22T03:05:21.407Z,12.80
2022-10-22T03:09:24.842Z,12.90
2022-10-22T03:13:27.024Z,13.50
2022-10-22T03:17:28.864Z,12.40
2022-10-22T03:21:41.522Z,12.70
2022-10-22T03:25:46.585Z,12.50
2022-10-22T03:29:51.372Z,14.30
2022-10-22T03:33:53.292Z,15.10
2022-10-22T03:37:55.216Z,13.50
2022-10-22T03:41:57.528Z,13.20
2022-10-22T03:45:59.352Z,12.70
2022-10-22T03:50:01.255Z,13.50
2022-10-22T03:54:03.401Z,14.10
2022-10-22T03:58:05.427Z,13.20
2022-10-22T04:02:07.711Z,14.50
2022-10-22T04:06:12.144Z,15.60
2022-10-22T04:10:14.358Z,14.40
2022-10-22T04:14:16.246Z,13.50
2022-10-22T04:18:23.256Z,14.90
2022-10-22T04:22:25.075Z,16.10
2022-10-22T04:26:27.385Z,14.40
2022-10-22T04:30:29.217Z,18.00
2022-10-22T04:34:31.148Z,14.20
2022-10-22T04:38:33.023Z,12.50
2022-10-22T04:42:34.917Z,13.80
2022-10-22T04:46:36.870Z,13.60
2022-10-22T04:50:38.804Z,14.10
2022-10-22T04:54:44.020Z,13.90
2022-10-22T04:58:48.202Z,14.50
2022-10-22T05:02:50.844Z,13.80
2022-10-22T05:06:52.775Z,13.80
2022-10-22T05:10:55.064Z,13.40
2022-10-22T05:14:56.970Z,13.60
2022-10-22T05:19:00.862Z,14.20
2022-10-22T05:23:02.788Z,15.20
2022-10-22T05:27:08.007Z,14.30
2022-10-22T05:31:12.549Z,16.30
2022-10-22T05:35:14.512Z,15.00
2022-10-22T05:39:16.346Z,15.50
2022-10-22T05:43:18.228Z,15.30
2022-10-22T05:47:20.124Z,15.80
2022-10-22T05:51:22.409Z,16.00
2022-10-22T05:55:24.276Z,15.80
2022-10-22T05:59:26.242Z,15.50
2022-10-22T06:03:29.016Z,16.50
2022-10-22T06:07:30.952Z,15.90
2022-10-22T06:11:35.121Z,17.80
2022-10-22T06:15:37.532Z,16.20
2022-10-22T06:19:39.389Z,15.30
2022-10-22T06:23:42.496Z,14.80
2022-10-22T06:27:49.724Z,16.30
2022-10-22T06:31:51.643Z,18.00
2022-10-22T06:35:53.611Z,16.70
2022-10-22T06:39:55.569Z,15.90
2022-10-22T06:43:58.087Z,16.30
2022-10-22T06:48:00.145Z,15.20
2022-10-22T06:52:02.027Z,15.90
2022-10-22T06:56:08.534Z,14.80
2022-10-22T07:00:10.979Z,15.60
2022-10-22T07:04:12.922Z,13.80
2022-10-22T07:08:14.837Z,17.30
2022-10-22T07:12:17.009Z,15.50
2022-10-22T07:16:19.257Z,15.80
2022-10-22T07:20:21.161Z,15.00
2022-10-22T07:24:23.178Z,16.70
2022-10-22T07:28:25.201Z,17.20
2022-10-22T07:32:27.104Z,16.90
2022-10-22T07:36:29.096Z,14.80
2022-10-22T07:40:31.267Z,13.30
2022-10-22T07:44:33.579Z,15.00
2022-10-22T07:48:36.713Z,14.50
2022-10-22T07:52:38.930Z,15.70
2022-10-22T07:56:41.097Z,14.40
2022-10-22T08:00:43.377Z,14.30
2022-10-22T08:04:45.254Z,14.90
2022-10-22T08:08:47.188Z,14.20
2022-10-22T08:12:49.083Z,14.00
2022-10-22T08:16:50.968Z,13.50
2022-10-22T08:20:53.326Z,13.70
2022-10-22T08:24:55.322Z,14.30
2022-10-22T08:28:57.708Z,14.50
2022-10-22T08:32:59.700Z,13.00
2022-10-22T08:37:21.744Z,13.30
2022-10-22T08:41:29.248Z,13.80
2022-10-22T08:45:50.480Z,13.90
2022-10-22T08:49:56.583Z,13.50
2022-10-22T08:54:16.608Z,13.90
2022-10-22T08:58:19.761Z,12.70
2022-10-22T09:02:45.863Z,14.30
2022-10-22T09:06:50.835Z,13.60
2022-10-22T09:11:21.516Z,14.90
2022-10-22T09:15:23.357Z,13.00
2022-10-22T09:19:31.265Z,12.80
2022-10-22T09:23:44.712Z,14.10
2022-10-22T09:27:47.949Z,14.60
2022-10-22T09:31:49.839Z,13.60
2022-10-22T09:35:55.053Z,12.90
2022-10-22T09:40:03.192Z,13.50
2022-10-22T09:44:06.713Z,15.30
2022-10-22T09:48:18.541Z,13.00
2022-10-22T09:52:28.936Z,14.30
2022-10-22T09:56:37.160Z,13.00
2022-10-22T10:04:53.451Z,14.40
2022-10-22T10:08:56.814Z,19.90
2022-10-22T10:13:38.962Z,13.90
2022-10-22T10:18:26.092Z,13.50
2022-10-22T10:22:53.026Z,12.20
2022-10-22T10:27:00.652Z,14.60
2022-10-22T10:31:21.236Z,13.30
2022-10-22T10:35:38.548Z,11.80
2022-10-22T10:39:49.759Z,12.70
2022-10-22T10:44:09.935Z,13.40
2022-10-22T10:48:27.483Z,13.70
2022-10-22T10:52:42.218Z,13.50
2022-10-22T10:56:55.986Z,13.70
2022-10-22T11:01:22.561Z,13.40
2022-10-22T11:05:45.793Z,14.40
2022-10-22T11:10:00.309Z,14.50
2022-10-22T11:14:11.099Z,13.60
2022-10-22T11:18:20.528Z,14.10
2022-10-22T11:22:31.656Z,17.10
2022-10-22T11:26:46.531Z,12.20
2022-10-22T11:30:57.140Z,14.20
2022-10-22T11:35:02.625Z,14.80
2022-10-22T11:39:04.728Z,13.80
2022-10-22T11:43:09.205Z,11.70
2022-10-22T11:47:23.571Z,12.40
2022-10-22T11:51:35.522Z,12.60
2022-10-22T11:55:47.642Z,11.40
2022-10-22T11:59:52.839Z,11.60
2022-10-22T12:03:57.458Z,12.10
2022-10-22T12:08:20.300Z,10.90
2022-10-22T12:12:22.843Z,11.40
2022-10-22T12:16:37.673Z,12.10
2022-10-22T12:20:53.714Z,13.90
2022-10-22T12:25:00.542Z,12.10
2022-10-22T12:29:09.938Z,11.30
2022-10-22T12:33:22.856Z,9.90
2022-10-22T12:37:24.810Z,12.20
2022-10-22T12:41:34.743Z,15.50
2022-10-22T12:45:37.944Z,13.30
2022-10-22T12:49:44.289Z,11.10
2022-10-22T12:53:50.325Z,11.10
2022-10-22T12:57:52.802Z,11.20
2022-10-22T13:01:56.357Z,11.50
2022-10-22T13:06:31.789Z,11.90
2022-10-22T13:10:36.740Z,12.30
2022-10-22T13:14:38.642Z,12.20
2022-10-22T13:18:41.263Z,12.60
2022-10-22T13:22:59.607Z,15.20
2022-10-22T13:27:01.770Z,14.30
2022-10-22T13:31:19.016Z,14.90
2022-10-22T13:35:25.020Z,13.70
2022-10-22T13:39:26.828Z,12.70
2022-10-22T13:43:28.716Z,13.90
2022-10-22T13:47:30.613Z,13.80
2022-10-22T13:51:34.660Z,14.20
2022-10-22T13:55:36.534Z,15.30
2022-10-22T13:59:38.425Z,17.00
2022-10-22T14:03:40.503Z,18.00
2022-10-22T14:07:42.654Z,19.50
2022-10-22T14:11:44.748Z,16.00
2022-10-22T14:15:49.804Z,20.30
2022-10-22T14:19:51.783Z,17.40
2022-10-22T14:23:54.079Z,13.00
2022-10-22T14:27:56.088Z,13.30
2022-10-22T14:31:57.996Z,13.70
2022-10-22T14:36:00.698Z,15.70
2022-10-22T14:40:02.731Z,11.90
2022-10-22T14:44:04.567Z,13.30
2022-10-22T14:48:06.396Z,12.60
2022-10-22T14:52:11.711Z,13.40
2022-10-22T14:56:22.409Z,12.30
2022-10-22T15:00:24.434Z,13.20
2022-10-22T15:04:27.664Z,12.40
2022-10-22T15:08:30.150Z,11.90
2022-10-22T15:12:32.100Z,12.20
2022-10-22T15:16:34.010Z,11.20
2022-10-22T15:20:35.825Z,10.70
2022-10-22T15:24:38.288Z,12.30
2022-10-22T15:28:41.557Z,13.90
2022-10-22T15:32:43.780Z,15.10
2022-10-22T15:36:46.013Z,16.10
2022-10-22T15:40:47.884Z,37.80
2022-10-22T15:44:57.517Z,38.50
2022-10-22T15:48:59.372Z,18.30
2022-10-22T15:53:01.195Z,15.00
2022-10-22T15:57:07.935Z,16.10
2022-10-22T16:01:12.566Z,13.80
2022-10-22T16:05:14.519Z,14.40
2022-10-22T16:09:19.927Z,15.20
2022-10-22T16:13:23.803Z,15.80
2022-10-22T16:17:25.630Z,18.10
2022-10-22T16:21:27.518Z,17.20
2022-10-22T16:25:29.367Z,18.30
2022-10-22T16:29:31.244Z,22.80
2022-10-22T16:33:41.377Z,46.70
2022-10-22T16:37:46.449Z,42.40
2022-10-22T16:41:48.289Z,24.80
2022-10-22T16:45:50.532Z,26.20
2022-10-22T16:49:52.317Z,24.60
2022-10-22T16:53:55.496Z,29.00
2022-10-22T16:57:57.361Z,24.80
2022-10-22T17:01:59.401Z,34.90
2022-10-22T17:06:03.693Z,30.10
2022-10-22T17:10:08.486Z,26.60
2022-10-22T17:14:10.789Z,24.40
2022-10-22T17:18:12.616Z,24.10
2022-10-22T17:22:17.689Z,23.10
2022-10-22T17:26:22.218Z,18.90
2022-10-22T17:30:27.234Z,17.70
2022-10-22T17:34:32.716Z,17.70
2022-10-22T17:38:35.061Z,35.80
2022-10-22T17:42:36.937Z,28.50
2022-10-22T17:46:39.470Z,33.80
2022-10-22T17:50:45.853Z,26.10
2022-10-22T17:54:52.721Z,31.00
2022-10-22T17:58:55.699Z,25.80
2022-10-22T18:03:00.008Z,24.30
2022-10-22T18:07:01.860Z,34.30
2022-10-22T18:11:09.018Z,30.00
2022-10-22T18:15:11.230Z,31.90
2022-10-22T18:19:19.153Z,32.10
2022-10-22T18:23:20.960Z,31.30
2022-10-22T18:27:22.830Z,31.50
2022-10-22T18:31:26.174Z,40.00
2022-10-22T18:35:31.626Z,50.80
2022-10-22T18:39:34.546Z,35.50
2022-10-22T18:43:36.831Z,47.40
2022-10-22T18:47:41.801Z,38.80
2022-10-22T18:51:44.789Z,43.40
2022-10-22T18:55:46.617Z,31.40
2022-10-22T18:59:48.648Z,39.10
2022-10-22T19:03:52.816Z,40.90
2022-10-22T19:07:54.821Z,34.70
2022-10-22T19:11:56.930Z,31.90
2022-10-22T19:16:03.349Z,39.00
2022-10-22T19:20:05.792Z,34.70
2022-10-22T19:24:07.693Z,33.40
2022-10-22T19:28:09.501Z,40.40
2022-10-22T19:32:12.860Z,39.00
2022-10-22T19:36:18.644Z,48.20
2022-10-22T19:44:30.465Z,45.30
2022-10-22T19:48:32.374Z,40.70
2022-10-22T19:52:34.185Z,35.10
2022-10-22T19:56:37.316Z,33.30
2022-10-22T20:00:39.303Z,48.60
2022-10-22T20:04:41.403Z,35.80
2022-10-22T20:08:44.245Z,37.00
2022-10-22T20:12:46.110Z,42.70
2022-10-22T20:16:48.004Z,40.20
2022-10-22T20:20:50.272Z,41.30
2022-10-22T20:24:52.177Z,39.20
2022-10-22T20:28:55.304Z,44.70
2022-10-22T20:32:58.688Z,40.40
2022-10-22T20:37:01.717Z,37.00
2022-10-22T20:41:06.161Z,27.30
2022-10-22T20:45:08.483Z,24.90
2022-10-22T20:49:14.886Z,29.20
2022-10-22T20:53:16.973Z,29.40
2022-10-22T20:57:19.142Z,25.20
2022-10-22T21:01:23.427Z,20.90
2022-10-22T21:05:25.303Z,20.20
2022-10-22T21:09:27.756Z,20.90
2022-10-22T21:13:34.083Z,14.60
2022-10-22T21:17:35.968Z,20.10
2022-10-22T21:21:37.924Z,19.00
2022-10-22T21:25:42.075Z,18.80
2022-10-22T21:29:45.916Z,19.10
2022-10-22T21:33:49.737Z,19.40
2022-10-22T21:37:51.676Z,15.50
2022-10-22T21:41:53.519Z,19.40
2022-10-22T21:46:08.722Z,21.70
2022-10-22T21:50:10.903Z,19.60
2022-10-22T21:54:12.899Z,19.00
2022-10-22T21:58:14.759Z,20.90
2022-10-22T22:02:16.680Z,19.80
2022-10-22T22:06:22.029Z,23.70
2022-10-22T22:10:26.123Z,21.00
2022-10-22T22:14:27.953Z,19.50
2022-10-22T22:18:30.064Z,19.30
2022-10-22T22:22:31.940Z,17.80
2022-10-22T22:26:34.391Z,19.90
2022-10-22T22:30:36.211Z,17.20
2022-10-22T22:34:38.024Z,16.60
2022-10-22T22:38:40.557Z,19.20
2022-10-22T22:42:42.383Z,14.70
2022-10-22T22:46:44.402Z,18.50
2022-10-22T22:50:46.196Z,13.50
2022-10-22T22:54:48.147Z,16.80
2022-10-22T22:58:50.260Z,16.20
2022-10-22T23:02:55.445Z,17.60
2022-10-22T23:06:57.456Z,18.60
2022-10-22T23:11:15.616Z,17.70
2022-10-22T23:15:17.507Z,16.60
2022-10-22T23:19:21.916Z,18.20
2022-10-22T23:23:23.729Z,16.80
2022-10-22T23:27:25.563Z,17.70
2022-10-22T23:31:27.736Z,18.90
2022-10-22T23:35:29.710Z,19.60
2022-10-22T23:39:31.586Z,19.80
2022-10-22T23:43:35.635Z,19.10
2022-10-22T23:47:37.489Z,17.60
2022-10-22T23:51:40.352Z,19.60
2022-10-22T23:55:43.652Z,18.40
2022-10-22T23:59:45.481Z,20.30
